sensor_id;sensor_type;location;lat;lon;timestamp;temperature;humidity
14144;DHT22;7152;48.348;10.980;2023-05-20T00:00:40;12.50;99.90
14144;DHT22;7152;48.348;10.980;2023-05-20T00:03:06;12.50;99.90
14144;DHT22;7152;48.348;10.980;2023-05-20T00:05:31;12.60;99.90
14144;DHT22;7152;48.348;10.980;2023-05-20T00:07:57;12.50;99.90
14144;DHT22;7152;48.348;10.980;2023-05-20T00:10:23;12.50;99.90
14144;DHT22;7152;48.348;10.980;2023-05-20T00:12:49;12.50;99.90
14144;DHT22;7152;48.348;10.980;2023-05-20T00:15:15;12.50;99.90
14144;DHT22;7152;48.348;10.980;2023-05-20T00:17:40;12.50;99.90
14144;DHT22;7152;48.348;10.980;2023-05-20T00:20:06;12.50;99.90
14144;DHT22;7152;48.348;10.980;2023-05-20T00:22:32;12.40;99.90
14144;DHT22;7152;48.348;10.980;2023-05-20T00:24:58;12.40;99.90
14144;DHT22;7152;48.348;10.980;2023-05-20T00:27:24;12.40;99.90
14144;DHT22;7152;48.348;10.980;2023-05-20T00:29:49;12.40;99.90
14144;DHT22;7152;48.348;10.980;2023-05-20T00:32:15;12.40;99.90
14144;DHT22;7152;48.348;10.980;2023-05-20T00:34:42;12.30;99.90
14144;DHT22;7152;48.348;10.980;2023-05-20T00:37:08;12.30;99.90
14144;DHT22;7152;48.348;10.980;2023-05-20T00:39:34;12.30;99.90
14144;DHT22;7152;48.348;10.980;2023-05-20T00:42:00;12.30;99.90
14144;DHT22;7152;48.348;10.980;2023-05-20T00:44:27;12.20;99.90
14144;DHT22;7152;48.348;10.980;2023-05-20T00:46:54;12.20;99.90
14144;DHT22;7152;48.348;10.980;2023-05-20T00:49:20;12.20;99.90
14144;DHT22;7152;48.348;10.980;2023-05-20T00:51:47;12.20;99.90
14144;DHT22;7152;48.348;10.980;2023-05-20T00:54:13;12.10;99.90
14144;DHT22;7152;48.348;10.980;2023-05-20T00:56:39;12.10;99.90
14144;DHT22;7152;48.348;10.980;2023-05-20T00:59:06;12.10;99.90
14144;DHT22;7152;48.348;10.980;2023-05-20T01:01:31;12.10;99.90
14144;DHT22;7152;48.348;10.980;2023-05-20T01:03:58;12.10;99.90
14144;DHT22;7152;48.348;10.980;2023-05-20T01:06:24;12.10;99.90
14144;DHT22;7152;48.348;10.980;2023-05-20T01:08:50;12.10;99.90
14144;DHT22;7152;48.348;10.980;2023-05-20T01:11:33;12.00;99.90
14144;DHT22;7152;48.348;10.980;2023-05-20T01:14:04;12.00;99.90
14144;DHT22;7152;48.348;10.980;2023-05-20T01:16:31;12.00;99.90
14144;DHT22;7152;48.348;10.980;2023-05-20T01:18:58;12.00;99.90
14144;DHT22;7152;48.348;10.980;2023-05-20T01:21:29;11.90;99.90
14144;DHT22;7152;48.348;10.980;2023-05-20T01:23:55;11.90;99.90
14144;DHT22;7152;48.348;10.980;2023-05-20T01:26:21;11.90;99.90
14144;DHT22;7152;48.348;10.980;2023-05-20T01:28:51;12.00;99.90
14144;DHT22;7152;48.348;10.980;2023-05-20T01:31:25;12.00;99.90
14144;DHT22;7152;48.348;10.980;2023-05-20T01:33:55;12.00;99.90
14144;DHT22;7152;48.348;10.980;2023-05-20T01:36:22;12.10;99.90
14144;DHT22;7152;48.348;10.980;2023-05-20T01:38:50;12.20;99.90
14144;DHT22;7152;48.348;10.980;2023-05-20T01:41:16;12.20;99.90
14144;DHT22;7152;48.348;10.980;2023-05-20T01:43:43;12.30;99.90
14144;DHT22;7152;48.348;10.980;2023-05-20T01:46:09;12.30;99.90
14144;DHT22;7152;48.348;10.980;2023-05-20T01:48:34;12.40;99.90
14144;DHT22;7152;48.348;10.980;2023-05-20T01:51:00;12.40;99.90
14144;DHT22;7152;48.348;10.980;2023-05-20T01:53:26;12.40;99.90
14144;DHT22;7152;48.348;10.980;2023-05-20T01:55:51;12.50;99.90
14144;DHT22;7152;48.348;10.980;2023-05-20T01:58:17;12.50;99.90
14144;DHT22;7152;48.348;10.980;2023-05-20T02:00:42;12.50;99.90
14144;DHT22;7152;48.348;10.980;2023-05-20T02:03:08;12.50;99.90
14144;DHT22;7152;48.348;10.980;2023-05-20T02:05:34;12.50;99.90
14144;DHT22;7152;48.348;10.980;2023-05-20T02:07:59;12.50;99.90
14144;DHT22;7152;48.348;10.980;2023-05-20T02:10:25;12.50;99.90
14144;DHT22;7152;48.348;10.980;2023-05-20T02:12:51;12.60;99.90
14144;DHT22;7152;48.348;10.980;2023-05-20T02:15:16;12.60;99.90
14144;DHT22;7152;48.348;10.980;2023-05-20T02:17:42;12.60;99.90
14144;DHT22;7152;48.348;10.980;2023-05-20T02:20:08;12.60;99.90
14144;DHT22;7152;48.348;10.980;2023-05-20T02:22:35;12.60;99.90
14144;DHT22;7152;48.348;10.980;2023-05-20T02:25:00;12.60;99.90
14144;DHT22;7152;48.348;10.980;2023-05-20T02:27:26;12.60;99.90
14144;DHT22;7152;48.348;10.980;2023-05-20T02:29:52;12.60;99.90
14144;DHT22;7152;48.348;10.980;2023-05-20T02:32:17;12.60;99.90
14144;DHT22;7152;48.348;10.980;2023-05-20T02:34:44;12.60;99.90
14144;DHT22;7152;48.348;10.980;2023-05-20T02:37:10;12.60;99.90
14144;DHT22;7152;48.348;10.980;2023-05-20T02:39:36;12.60;99.90
14144;DHT22;7152;48.348;10.980;2023-05-20T02:42:01;12.60;99.90
14144;DHT22;7152;48.348;10.980;2023-05-20T02:44:29;12.60;99.90
14144;DHT22;7152;48.348;10.980;2023-05-20T02:46:54;12.60;99.90
14144;DHT22;7152;48.348;10.980;2023-05-20T02:49:20;12.60;99.90
14144;DHT22;7152;48.348;10.980;2023-05-20T02:51:46;12.60;99.90
14144;DHT22;7152;48.348;10.980;2023-05-20T02:54:11;12.60;99.90
14144;DHT22;7152;48.348;10.980;2023-05-20T02:56:37;12.60;99.90
14144;DHT22;7152;48.348;10.980;2023-05-20T02:59:03;12.60;99.90
14144;DHT22;7152;48.348;10.980;2023-05-20T03:01:29;12.60;99.90
14144;DHT22;7152;48.348;10.980;2023-05-20T03:03:54;12.60;99.90
14144;DHT22;7152;48.348;10.980;2023-05-20T03:06:20;12.60;99.90
14144;DHT22;7152;48.348;10.980;2023-05-20T03:08:46;12.60;99.90
14144;DHT22;7152;48.348;10.980;2023-05-20T03:11:12;12.60;99.90
14144;DHT22;7152;48.348;10.980;2023-05-20T03:13:37;12.60;99.90
14144;DHT22;7152;48.348;10.980;2023-05-20T03:16:03;12.60;99.90
14144;DHT22;7152;48.348;10.980;2023-05-20T03:18:29;12.60;99.90
14144;DHT22;7152;48.348;10.980;2023-05-20T03:20:55;12.60;99.90
14144;DHT22;7152;48.348;10.980;2023-05-20T03:23:20;12.60;99.90
14144;DHT22;7152;48.348;10.980;2023-05-20T03:25:46;12.60;99.90
14144;DHT22;7152;48.348;10.980;2023-05-20T03:28:12;12.60;99.90
14144;DHT22;7152;48.348;10.980;2023-05-20T03:30:38;12.60;99.90
14144;DHT22;7152;48.348;10.980;2023-05-20T03:33:03;12.70;99.90
14144;DHT22;7152;48.348;10.980;2023-05-20T03:35:30;12.60;99.90
14144;DHT22;7152;48.348;10.980;2023-05-20T03:37:56;12.60;99.90
14144;DHT22;7152;48.348;10.980;2023-05-20T03:40:22;12.50;99.90
14144;DHT22;7152;48.348;10.980;2023-05-20T03:42:47;12.60;99.90
14144;DHT22;7152;48.348;10.980;2023-05-20T03:45:15;12.50;99.90
14144;DHT22;7152;48.348;10.980;2023-05-20T03:47:40;12.50;99.90
14144;DHT22;7152;48.348;10.980;2023-05-20T03:50:06;12.60;99.90
14144;DHT22;7152;48.348;10.980;2023-05-20T03:52:32;12.50;99.90
14144;DHT22;7152;48.348;10.980;2023-05-20T03:54:58;12.50;99.90
14144;DHT22;7152;48.348;10.980;2023-05-20T03:57:24;12.50;99.90
14144;DHT22;7152;48.348;10.980;2023-05-20T03:59:50;12.50;99.90
14144;DHT22;7152;48.348;10.980;2023-05-20T04:02:16;12.50;99.90
14144;DHT22;7152;48.348;10.980;2023-05-20T04:04:41;12.50;99.90
14144;DHT22;7152;48.348;10.980;2023-05-20T04:07:10;12.50;99.90
14144;DHT22;7152;48.348;10.980;2023-05-20T04:09:37;12.50;99.90
14144;DHT22;7152;48.348;10.980;2023-05-20T04:12:04;12.50;99.90
14144;DHT22;7152;48.348;10.980;2023-05-20T04:14:29;12.60;99.90
14144;DHT22;7152;48.348;10.980;2023-05-20T04:16:55;12.50;99.90
14144;DHT22;7152;48.348;10.980;2023-05-20T04:19:21;12.60;99.90
14144;DHT22;7152;48.348;10.980;2023-05-20T04:21:48;12.60;99.90
14144;DHT22;7152;48.348;10.980;2023-05-20T04:24:14;12.60;99.90
14144;DHT22;7152;48.348;10.980;2023-05-20T04:26:39;12.60;99.90
14144;DHT22;7152;48.348;10.980;2023-05-20T04:29:05;12.60;99.90
14144;DHT22;7152;48.348;10.980;2023-05-20T04:31:30;12.60;99.90
14144;DHT22;7152;48.348;10.980;2023-05-20T04:33:57;12.70;99.90
14144;DHT22;7152;48.348;10.980;2023-05-20T04:36:23;12.70;99.90
14144;DHT22;7152;48.348;10.980;2023-05-20T04:38:53;12.70;99.90
14144;DHT22;7152;48.348;10.980;2023-05-20T04:41:19;12.70;99.90
14144;DHT22;7152;48.348;10.980;2023-05-20T04:43:45;12.70;99.90
14144;DHT22;7152;48.348;10.980;2023-05-20T04:46:11;12.80;99.90
14144;DHT22;7152;48.348;10.980;2023-05-20T04:48:36;12.80;99.90
14144;DHT22;7152;48.348;10.980;2023-05-20T04:51:02;12.80;99.90
14144;DHT22;7152;48.348;10.980;2023-05-20T04:53:28;12.80;99.90
14144;DHT22;7152;48.348;10.980;2023-05-20T04:55:58;12.90;99.90
14144;DHT22;7152;48.348;10.980;2023-05-20T04:58:23;12.90;99.90
14144;DHT22;7152;48.348;10.980;2023-05-20T05:00:50;12.90;99.90
14144;DHT22;7152;48.348;10.980;2023-05-20T05:03:16;12.90;99.90
14144;DHT22;7152;48.348;10.980;2023-05-20T05:05:42;13.00;99.90
14144;DHT22;7152;48.348;10.980;2023-05-20T05:08:08;13.00;99.90
14144;DHT22;7152;48.348;10.980;2023-05-20T05:10:36;13.00;99.90
14144;DHT22;7152;48.348;10.980;2023-05-20T05:13:01;13.10;99.90
14144;DHT22;7152;48.348;10.980;2023-05-20T05:15:27;13.10;99.90
14144;DHT22;7152;48.348;10.980;2023-05-20T05:17:53;13.10;99.90
14144;DHT22;7152;48.348;10.980;2023-05-20T05:20:19;13.10;99.90
14144;DHT22;7152;48.348;10.980;2023-05-20T05:22:44;13.10;99.90
14144;DHT22;7152;48.348;10.980;2023-05-20T05:25:11;13.10;99.90
14144;DHT22;7152;48.348;10.980;2023-05-20T05:27:37;13.20;99.90
14144;DHT22;7152;48.348;10.980;2023-05-20T05:30:04;13.20;99.90
14144;DHT22;7152;48.348;10.980;2023-05-20T05:32:30;13.30;99.90
14144;DHT22;7152;48.348;10.980;2023-05-20T05:34:56;13.30;99.90
14144;DHT22;7152;48.348;10.980;2023-05-20T05:37:22;13.30;99.90
14144;DHT22;7152;48.348;10.980;2023-05-20T05:39:48;13.40;99.90
14144;DHT22;7152;48.348;10.980;2023-05-20T05:42:13;13.40;99.90
14144;DHT22;7152;48.348;10.980;2023-05-20T05:44:39;13.40;99.90
14144;DHT22;7152;48.348;10.980;2023-05-20T05:47:05;13.50;99.90
14144;DHT22;7152;48.348;10.980;2023-05-20T05:49:31;13.50;99.90
14144;DHT22;7152;48.348;10.980;2023-05-20T05:51:57;13.50;99.90
14144;DHT22;7152;48.348;10.980;2023-05-20T05:54:23;13.50;99.90
14144;DHT22;7152;48.348;10.980;2023-05-20T05:56:50;13.50;99.90
14144;DHT22;7152;48.348;10.980;2023-05-20T05:59:16;13.50;99.90
14144;DHT22;7152;48.348;10.980;2023-05-20T06:01:41;13.50;99.90
14144;DHT22;7152;48.348;10.980;2023-05-20T06:04:07;13.50;99.90
14144;DHT22;7152;48.348;10.980;2023-05-20T06:06:33;13.50;99.90
14144;DHT22;7152;48.348;10.980;2023-05-20T06:08:58;13.50;99.90
14144;DHT22;7152;48.348;10.980;2023-05-20T06:11:24;13.50;99.90
14144;DHT22;7152;48.348;10.980;2023-05-20T06:13:51;13.60;99.90
14144;DHT22;7152;48.348;10.980;2023-05-20T06:16:17;13.60;99.90
14144;DHT22;7152;48.348;10.980;2023-05-20T06:18:44;13.60;99.90
14144;DHT22;7152;48.348;10.980;2023-05-20T06:21:10;13.70;99.90
14144;DHT22;7152;48.348;10.980;2023-05-20T06:23:35;13.70;99.90
14144;DHT22;7152;48.348;10.980;2023-05-20T06:26:01;13.70;99.90
14144;DHT22;7152;48.348;10.980;2023-05-20T06:28:27;13.70;99.90
14144;DHT22;7152;48.348;10.980;2023-05-20T06:30:56;13.80;99.90
14144;DHT22;7152;48.348;10.980;2023-05-20T06:33:26;13.80;99.90
14144;DHT22;7152;48.348;10.980;2023-05-20T06:35:53;13.80;99.90
14144;DHT22;7152;48.348;10.980;2023-05-20T06:38:19;13.90;99.90
14144;DHT22;7152;48.348;10.980;2023-05-20T06:40:45;13.90;99.90
14144;DHT22;7152;48.348;10.980;2023-05-20T06:43:11;14.00;99.90
14144;DHT22;7152;48.348;10.980;2023-05-20T06:45:37;14.00;99.90
14144;DHT22;7152;48.348;10.980;2023-05-20T06:48:02;14.10;99.90
14144;DHT22;7152;48.348;10.980;2023-05-20T06:50:28;14.20;99.90
14144;DHT22;7152;48.348;10.980;2023-05-20T06:52:54;14.20;99.90
14144;DHT22;7152;48.348;10.980;2023-05-20T06:55:19;14.20;99.90
14144;DHT22;7152;48.348;10.980;2023-05-20T06:57:45;14.30;99.90
14144;DHT22;7152;48.348;10.980;2023-05-20T07:00:11;14.40;99.90
14144;DHT22;7152;48.348;10.980;2023-05-20T07:02:38;14.40;99.90
14144;DHT22;7152;48.348;10.980;2023-05-20T07:05:05;14.50;99.90
14144;DHT22;7152;48.348;10.980;2023-05-20T07:07:31;14.60;99.90
14144;DHT22;7152;48.348;10.980;2023-05-20T07:09:57;14.80;99.90
14144;DHT22;7152;48.348;10.980;2023-05-20T07:12:22;14.90;99.90
14144;DHT22;7152;48.348;10.980;2023-05-20T07:14:48;14.90;99.90
14144;DHT22;7152;48.348;10.980;2023-05-20T07:17:14;15.10;99.90
14144;DHT22;7152;48.348;10.980;2023-05-20T07:19:40;15.30;99.90
14144;DHT22;7152;48.348;10.980;2023-05-20T07:22:05;15.40;99.90
14144;DHT22;7152;48.348;10.980;2023-05-20T07:24:31;15.50;99.90
14144;DHT22;7152;48.348;10.980;2023-05-20T07:26:57;15.50;99.90
14144;DHT22;7152;48.348;10.980;2023-05-20T07:29:23;15.50;99.90
14144;DHT22;7152;48.348;10.980;2023-05-20T07:31:48;15.60;99.90
14144;DHT22;7152;48.348;10.980;2023-05-20T07:34:14;15.70;99.90
14144;DHT22;7152;48.348;10.980;2023-05-20T07:36:40;15.80;99.90
14144;DHT22;7152;48.348;10.980;2023-05-20T07:39:06;15.80;99.90
14144;DHT22;7152;48.348;10.980;2023-05-20T07:41:33;15.90;99.90
14144;DHT22;7152;48.348;10.980;2023-05-20T07:44:00;16.00;99.90
14144;DHT22;7152;48.348;10.980;2023-05-20T07:46:25;16.00;99.90
14144;DHT22;7152;48.348;10.980;2023-05-20T07:48:51;16.20;99.90
14144;DHT22;7152;48.348;10.980;2023-05-20T07:51:17;16.40;99.90
14144;DHT22;7152;48.348;10.980;2023-05-20T07:53:43;16.70;99.90
14144;DHT22;7152;48.348;10.980;2023-05-20T07:56:09;16.90;99.90
14144;DHT22;7152;48.348;10.980;2023-05-20T07:58:34;17.20;99.90
14144;DHT22;7152;48.348;10.980;2023-05-20T08:01:00;17.20;99.90
14144;DHT22;7152;48.348;10.980;2023-05-20T08:03:26;17.10;99.90
14144;DHT22;7152;48.348;10.980;2023-05-20T08:05:52;17.10;99.90
14144;DHT22;7152;48.348;10.980;2023-05-20T08:08:17;17.20;99.90
14144;DHT22;7152;48.348;10.980;2023-05-20T08:10:43;17.30;99.90
14144;DHT22;7152;48.348;10.980;2023-05-20T08:13:08;17.40;99.90
14144;DHT22;7152;48.348;10.980;2023-05-20T08:15:35;17.40;99.90
14144;DHT22;7152;48.348;10.980;2023-05-20T08:18:01;17.40;99.90
14144;DHT22;7152;48.348;10.980;2023-05-20T08:20:27;17.70;99.90
14144;DHT22;7152;48.348;10.980;2023-05-20T08:22:53;17.80;99.90
14144;DHT22;7152;48.348;10.980;2023-05-20T08:25:19;18.00;99.90
14144;DHT22;7152;48.348;10.980;2023-05-20T08:27:45;18.00;99.90
14144;DHT22;7152;48.348;10.980;2023-05-20T08:30:10;17.90;99.90
14144;DHT22;7152;48.348;10.980;2023-05-20T08:32:36;17.80;99.90
14144;DHT22;7152;48.348;10.980;2023-05-20T08:35:02;17.70;99.90
14144;DHT22;7152;48.348;10.980;2023-05-20T08:37:29;17.60;99.90
14144;DHT22;7152;48.348;10.980;2023-05-20T08:39:55;17.50;99.90
14144;DHT22;7152;48.348;10.980;2023-05-20T08:42:22;17.40;99.90
14144;DHT22;7152;48.348;10.980;2023-05-20T08:44:50;17.30;99.90
14144;DHT22;7152;48.348;10.980;2023-05-20T08:47:18;17.40;99.90
14144;DHT22;7152;48.348;10.980;2023-05-20T08:49:44;17.60;99.90
14144;DHT22;7152;48.348;10.980;2023-05-20T08:52:10;17.80;99.90
14144;DHT22;7152;48.348;10.980;2023-05-20T08:54:45;18.00;99.90
14144;DHT22;7152;48.348;10.980;2023-05-20T08:57:12;18.20;99.90
14144;DHT22;7152;48.348;10.980;2023-05-20T08:59:42;18.40;99.90
14144;DHT22;7152;48.348;10.980;2023-05-20T09:02:11;18.60;99.90
14144;DHT22;7152;48.348;10.980;2023-05-20T09:04:37;18.90;99.90
14144;DHT22;7152;48.348;10.980;2023-05-20T09:07:03;19.00;99.90
14144;DHT22;7152;48.348;10.980;2023-05-20T09:09:29;19.10;99.90
14144;DHT22;7152;48.348;10.980;2023-05-20T09:11:55;19.40;99.90
14144;DHT22;7152;48.348;10.980;2023-05-20T09:14:21;19.60;99.90
14144;DHT22;7152;48.348;10.980;2023-05-20T09:16:48;19.80;99.90
14144;DHT22;7152;48.348;10.980;2023-05-20T09:19:13;20.00;99.90
14144;DHT22;7152;48.348;10.980;2023-05-20T09:21:40;20.20;99.90
14144;DHT22;7152;48.348;10.980;2023-05-20T09:24:06;20.40;99.90
14144;DHT22;7152;48.348;10.980;2023-05-20T09:26:32;20.60;99.90
14144;DHT22;7152;48.348;10.980;2023-05-20T09:28:58;20.70;99.90
14144;DHT22;7152;48.348;10.980;2023-05-20T09:31:29;20.80;99.90
14144;DHT22;7152;48.348;10.980;2023-05-20T09:33:55;20.80;99.90
14144;DHT22;7152;48.348;10.980;2023-05-20T09:36:22;20.80;99.90
14144;DHT22;7152;48.348;10.980;2023-05-20T09:38:50;20.90;99.90
14144;DHT22;7152;48.348;10.980;2023-05-20T09:41:17;21.20;99.90
14144;DHT22;7152;48.348;10.980;2023-05-20T09:43:46;21.30;99.90
14144;DHT22;7152;48.348;10.980;2023-05-20T09:46:13;21.30;99.90
14144;DHT22;7152;48.348;10.980;2023-05-20T09:48:40;21.40;99.90
14144;DHT22;7152;48.348;10.980;2023-05-20T09:51:06;21.60;99.90
14144;DHT22;7152;48.348;10.980;2023-05-20T09:53:32;22.00;99.90
14144;DHT22;7152;48.348;10.980;2023-05-20T09:55:58;22.00;99.90
14144;DHT22;7152;48.348;10.980;2023-05-20T09:58:24;22.20;99.90
14144;DHT22;7152;48.348;10.980;2023-05-20T10:00:50;22.30;99.90
14144;DHT22;7152;48.348;10.980;2023-05-20T10:03:17;22.50;99.90
14144;DHT22;7152;48.348;10.980;2023-05-20T10:11:47;22.60;99.90
14144;DHT22;7152;48.348;10.980;2023-05-20T10:19:45;22.40;99.90
14144;DHT22;7152;48.348;10.980;2023-05-20T10:22:11;22.70;99.90
14144;DHT22;7152;48.348;10.980;2023-05-20T10:24:39;23.00;99.90
14144;DHT22;7152;48.348;10.980;2023-05-20T10:27:13;23.50;99.90
14144;DHT22;7152;48.348;10.980;2023-05-20T10:29:49;23.70;99.90
14144;DHT22;7152;48.348;10.980;2023-05-20T10:32:29;23.90;99.90
14144;DHT22;7152;48.348;10.980;2023-05-20T10:35:07;23.70;99.90
14144;DHT22;7152;48.348;10.980;2023-05-20T10:37:44;23.70;99.90
14144;DHT22;7152;48.348;10.980;2023-05-20T10:40:14;23.60;99.90
14144;DHT22;7152;48.348;10.980;2023-05-20T10:42:40;23.40;99.90
14144;DHT22;7152;48.348;10.980;2023-05-20T10:45:07;23.40;99.90
14144;DHT22;7152;48.348;10.980;2023-05-20T10:47:34;23.40;99.90
14144;DHT22;7152;48.348;10.980;2023-05-20T10:50:00;23.50;99.90
14144;DHT22;7152;48.348;10.980;2023-05-20T10:52:27;23.50;99.90
14144;DHT22;7152;48.348;10.980;2023-05-20T10:54:58;23.30;99.90
14144;DHT22;7152;48.348;10.980;2023-05-20T10:57:27;23.40;99.90
14144;DHT22;7152;48.348;10.980;2023-05-20T10:59:54;23.60;99.90
14144;DHT22;7152;48.348;10.980;2023-05-20T11:02:20;23.70;99.90
14144;DHT22;7152;48.348;10.980;2023-05-20T11:04:56;23.80;99.90
14144;DHT22;7152;48.348;10.980;2023-05-20T11:07:28;23.70;99.90
14144;DHT22;7152;48.348;10.980;2023-05-20T11:09:55;23.70;99.90
14144;DHT22;7152;48.348;10.980;2023-05-20T11:12:22;23.60;99.90
14144;DHT22;7152;48.348;10.980;2023-05-20T11:14:48;23.60;99.90
14144;DHT22;7152;48.348;10.980;2023-05-20T11:17:15;23.50;99.90
14144;DHT22;7152;48.348;10.980;2023-05-20T11:19:41;23.70;99.90
14144;DHT22;7152;48.348;10.980;2023-05-20T11:22:07;23.80;99.90
14144;DHT22;7152;48.348;10.980;2023-05-20T11:24:32;23.90;99.90
14144;DHT22;7152;48.348;10.980;2023-05-20T11:27:01;23.90;99.90
14144;DHT22;7152;48.348;10.980;2023-05-20T11:29:27;23.80;99.90
14144;DHT22;7152;48.348;10.980;2023-05-20T11:31:59;23.80;99.90
14144;DHT22;7152;48.348;10.980;2023-05-20T11:34:31;23.90;99.90
14144;DHT22;7152;48.348;10.980;2023-05-20T11:36:57;23.90;99.90
14144;DHT22;7152;48.348;10.980;2023-05-20T11:39:23;23.80;99.90
14144;DHT22;7152;48.348;10.980;2023-05-20T11:41:49;23.80;99.90
14144;DHT22;7152;48.348;10.980;2023-05-20T11:44:15;23.80;99.90
14144;DHT22;7152;48.348;10.980;2023-05-20T11:46:45;23.80;99.90
14144;DHT22;7152;48.348;10.980;2023-05-20T11:49:15;23.80;99.90
14144;DHT22;7152;48.348;10.980;2023-05-20T11:51:42;23.80;99.90
14144;DHT22;7152;48.348;10.980;2023-05-20T11:54:08;23.70;99.90
14144;DHT22;7152;48.348;10.980;2023-05-20T11:56:38;23.80;99.90
14144;DHT22;7152;48.348;10.980;2023-05-20T11:59:07;24.50;99.90
14144;DHT22;7152;48.348;10.980;2023-05-20T12:01:35;25.40;99.90
14144;DHT22;7152;48.348;10.980;2023-05-20T12:04:10;26.50;99.90
14144;DHT22;7152;48.348;10.980;2023-05-20T12:06:37;27.30;99.90
14144;DHT22;7152;48.348;10.980;2023-05-20T12:09:05;27.90;99.90
14144;DHT22;7152;48.348;10.980;2023-05-20T12:11:35;28.60;99.90
14144;DHT22;7152;48.348;10.980;2023-05-20T12:14:02;28.90;99.90
14144;DHT22;7152;48.348;10.980;2023-05-20T12:16:30;29.40;99.90
14144;DHT22;7152;48.348;10.980;2023-05-20T12:18:55;29.80;99.90
14144;DHT22;7152;48.348;10.980;2023-05-20T12:21:21;29.80;99.90
14144;DHT22;7152;48.348;10.980;2023-05-20T12:23:47;29.80;99.90
14144;DHT22;7152;48.348;10.980;2023-05-20T12:26:12;29.40;99.50
14144;DHT22;7152;48.348;10.980;2023-05-20T12:28:38;29.60;98.80
14144;DHT22;7152;48.348;10.980;2023-05-20T12:31:04;29.70;98.90
14144;DHT22;7152;48.348;10.980;2023-05-20T12:33:30;29.60;98.20
14144;DHT22;7152;48.348;10.980;2023-05-20T12:35:56;29.50;98.30
14144;DHT22;7152;48.348;10.980;2023-05-20T12:38:22;29.40;97.60
14144;DHT22;7152;48.348;10.980;2023-05-20T12:40:47;29.00;97.20
14144;DHT22;7152;48.348;10.980;2023-05-20T12:43:13;29.30;97.50
14144;DHT22;7152;48.348;10.980;2023-05-20T12:45:39;29.80;97.80
14144;DHT22;7152;48.348;10.980;2023-05-20T12:48:04;30.20;97.10
14144;DHT22;7152;48.348;10.980;2023-05-20T12:50:32;30.80;96.30
14144;DHT22;7152;48.348;10.980;2023-05-20T12:52:58;31.50;95.80
14144;DHT22;7152;48.348;10.980;2023-05-20T12:55:23;32.10;95.10
14144;DHT22;7152;48.348;10.980;2023-05-20T12:57:49;32.50;94.40
14144;DHT22;7152;48.348;10.980;2023-05-20T13:00:15;32.70;92.80
14144;DHT22;7152;48.348;10.980;2023-05-20T13:02:41;33.10;92.30
14144;DHT22;7152;48.348;10.980;2023-05-20T13:05:08;33.40;91.50
14144;DHT22;7152;48.348;10.980;2023-05-20T13:07:34;34.00;91.00
14144;DHT22;7152;48.348;10.980;2023-05-20T13:10:00;34.50;90.30
14144;DHT22;7152;48.348;10.980;2023-05-20T13:12:25;34.90;88.70
14144;DHT22;7152;48.348;10.980;2023-05-20T13:14:51;35.30;86.70
14144;DHT22;7152;48.348;10.980;2023-05-20T13:17:17;35.20;83.70
14144;DHT22;7152;48.348;10.980;2023-05-20T13:19:43;35.10;83.10
14144;DHT22;7152;48.348;10.980;2023-05-20T13:22:10;35.00;81.30
14144;DHT22;7152;48.348;10.980;2023-05-20T13:24:36;35.10;79.70
14144;DHT22;7152;48.348;10.980;2023-05-20T13:27:02;35.20;79.30
14144;DHT22;7152;48.348;10.980;2023-05-20T13:29:28;35.10;78.30
14144;DHT22;7152;48.348;10.980;2023-05-20T13:31:53;34.90;75.60
14144;DHT22;7152;48.348;10.980;2023-05-20T13:34:19;34.90;75.50
14144;DHT22;7152;48.348;10.980;2023-05-20T13:36:45;35.10;75.50
14144;DHT22;7152;48.348;10.980;2023-05-20T13:39:13;34.90;75.40
14144;DHT22;7152;48.348;10.980;2023-05-20T13:41:38;35.00;74.60
14144;DHT22;7152;48.348;10.980;2023-05-20T13:44:04;35.20;74.50
14144;DHT22;7152;48.348;10.980;2023-05-20T13:46:30;35.40;73.30
14144;DHT22;7152;48.348;10.980;2023-05-20T13:48:56;35.80;73.50
14144;DHT22;7152;48.348;10.980;2023-05-20T13:51:21;34.90;73.90
14144;DHT22;7152;48.348;10.980;2023-05-20T13:53:47;33.90;73.70
14144;DHT22;7152;48.348;10.980;2023-05-20T13:56:13;33.70;74.50
14144;DHT22;7152;48.348;10.980;2023-05-20T13:58:38;33.30;74.60
14144;DHT22;7152;48.348;10.980;2023-05-20T14:01:05;33.00;74.90
14144;DHT22;7152;48.348;10.980;2023-05-20T14:03:31;32.50;74.90
14144;DHT22;7152;48.348;10.980;2023-05-20T14:05:58;32.20;75.30
14144;DHT22;7152;48.348;10.980;2023-05-20T14:08:24;32.50;75.80
14144;DHT22;7152;48.348;10.980;2023-05-20T14:10:50;32.80;76.10
14144;DHT22;7152;48.348;10.980;2023-05-20T14:13:23;32.80;75.40
14144;DHT22;7152;48.348;10.980;2023-05-20T14:15:49;33.10;74.50
14144;DHT22;7152;48.348;10.980;2023-05-20T14:18:18;33.60;75.00
14144;DHT22;7152;48.348;10.980;2023-05-20T14:20:44;34.40;73.40
14144;DHT22;7152;48.348;10.980;2023-05-20T14:23:10;34.60;72.90
14144;DHT22;7152;48.348;10.980;2023-05-20T14:25:36;35.10;72.70
14144;DHT22;7152;48.348;10.980;2023-05-20T14:28:02;35.70;71.90
14144;DHT22;7152;48.348;10.980;2023-05-20T14:30:28;36.20;71.10
14144;DHT22;7152;48.348;10.980;2023-05-20T14:32:53;36.50;70.80
14144;DHT22;7152;48.348;10.980;2023-05-20T14:35:19;36.50;70.80
14144;DHT22;7152;48.348;10.980;2023-05-20T14:37:45;36.40;69.70
14144;DHT22;7152;48.348;10.980;2023-05-20T14:40:11;36.00;68.80
14144;DHT22;7152;48.348;10.980;2023-05-20T14:42:36;35.90;68.40
14144;DHT22;7152;48.348;10.980;2023-05-20T14:45:03;35.40;68.00
14144;DHT22;7152;48.348;10.980;2023-05-20T14:47:29;35.40;68.50
14144;DHT22;7152;48.348;10.980;2023-05-20T14:49:55;35.40;68.30
14144;DHT22;7152;48.348;10.980;2023-05-20T14:52:21;35.50;68.60
14144;DHT22;7152;48.348;10.980;2023-05-20T14:54:47;35.70;68.70
14144;DHT22;7152;48.348;10.980;2023-05-20T14:57:13;36.20;68.70
14144;DHT22;7152;48.348;10.980;2023-05-20T14:59:40;36.40;64.80
14144;DHT22;7152;48.348;10.980;2023-05-20T15:02:06;36.90;64.30
14144;DHT22;7152;48.348;10.980;2023-05-20T15:04:32;37.50;63.80
14144;DHT22;7152;48.348;10.980;2023-05-20T15:06:58;37.80;62.40
14144;DHT22;7152;48.348;10.980;2023-05-20T15:09:23;37.70;59.80
14144;DHT22;7152;48.348;10.980;2023-05-20T15:11:49;37.00;60.00
14144;DHT22;7152;48.348;10.980;2023-05-20T15:14:15;36.50;60.70
14144;DHT22;7152;48.348;10.980;2023-05-20T15:16:41;35.80;61.60
14144;DHT22;7152;48.348;10.980;2023-05-20T15:19:09;35.40;63.00
14144;DHT22;7152;48.348;10.980;2023-05-20T15:21:35;34.80;63.30
14144;DHT22;7152;48.348;10.980;2023-05-20T15:24:00;34.20;63.60
14144;DHT22;7152;48.348;10.980;2023-05-20T15:26:26;33.50;64.40
14144;DHT22;7152;48.348;10.980;2023-05-20T15:28:52;33.30;65.00
14144;DHT22;7152;48.348;10.980;2023-05-20T15:31:17;33.30;65.90
14144;DHT22;7152;48.348;10.980;2023-05-20T15:33:43;32.90;66.50
14144;DHT22;7152;48.348;10.980;2023-05-20T15:36:09;32.50;66.70